Time;durP1;ratioP1;P1;durP2;ratioP2;P2;SDS_P1;SDS_P2;PMS_P1;PMS_P2;Temp;Humidity;BMP_temperature;BMP_pressure;BME280_temperature;BME280_humidity;BME280_pressure;Samples;Min_cycle;Max_cycle;Signal;HPM_P1;HPM_P2
2023/09/04 00:00:29;;;;;;;3.63;3.20;;;;;;;28.93;60.94;100399.13;4926709;28;70248;-35
2023/09/04 00:02:59;;;;;;;5.30;3.50;;;;;;;28.98;65.65;100406.56;4913527;28;66123;-38
2023/09/04 00:05:33;;;;;;;4.85;3.70;;;;;;;29.04;68.09;100411.94;4920633;28;70123;-34
2023/09/04 00:08:04;;;;;;;4.45;3.85;;;;;;;29.07;71.72;100416.06;4920275;28;65577;-34
2023/09/04 00:10:34;;;;;;;7.70;3.60;;;;;;;29.10;73.91;100427.25;4919551;28;69953;-34
2023/09/04 00:13:04;;;;;;;6.38;3.67;;;;;;;28.91;71.59;100391.22;4925081;28;66291;-34
2023/09/04 00:15:34;;;;;;;8.82;4.18;;;;;;;29.18;76.70;100431.56;4921166;28;69337;-35
2023/09/04 00:18:04;;;;;;;5.55;4.25;;;;;;;29.20;76.20;100426.78;4921719;28;66441;-34
2023/09/04 00:20:34;;;;;;;6.65;4.63;;;;;;;29.25;78.18;100435.03;4906709;28;70300;-35
2023/09/04 00:23:04;;;;;;;7.55;4.68;;;;;;;29.30;76.38;100439.78;4913484;28;66177;-35
2023/09/04 00:25:34;;;;;;;9.00;3.85;;;;;;;29.33;77.94;100436.63;4905132;28;70299;-35
2023/09/04 00:28:04;;;;;;;10.50;4.47;;;;;;;29.34;78.04;100444.53;4926452;28;65539;-34
2023/09/04 00:30:35;;;;;;;6.35;3.92;;;;;;;29.28;79.38;100445.44;4920429;28;70201;-34
2023/09/04 00:33:05;;;;;;;8.10;4.93;;;;;;;29.44;78.07;100459.41;4924557;28;65396;-35
2023/09/04 00:35:35;;;;;;;7.88;4.35;;;;;;;29.53;72.97;100458.09;4910930;28;69858;-35
2023/09/04 00:38:05;;;;;;;16.00;4.03;;;;;;;29.57;71.70;100462.84;4926668;28;65607;-35
2023/09/04 00:40:35;;;;;;;4.28;3.78;;;;;;;29.59;71.10;100459.94;4899053;28;70107;-35
2023/09/04 00:43:06;;;;;;;4.22;3.83;;;;;;;29.60;70.82;100450.75;4903936;28;65437;-33
2023/09/04 00:45:36;;;;;;;6.00;3.90;;;;;;;29.58;70.35;100444.75;4935368;28;69354;-35
2023/09/04 00:48:07;;;;;;;3.92;3.53;;;;;;;29.71;70.05;100466.28;4933706;28;66472;-35
2023/09/04 00:50:37;;;;;;;7.15;3.80;;;;;;;29.73;69.84;100472.31;4925334;28;69409;-36
2023/09/04 00:53:11;;;;;;;4.28;3.85;;;;;;;29.77;69.73;100473.50;4936616;28;66700;-35
2023/09/04 00:55:41;;;;;;;4.18;3.78;;;;;;;29.78;69.57;100469.75;4924447;28;69694;-35
2023/09/04 00:58:11;;;;;;;3.28;3.05;;;;;;;29.81;69.52;100482.81;4921734;28;65667;-35
2023/09/04 01:00:41;;;;;;;4.03;3.67;;;;;;;29.81;69.73;100477.41;4907920;28;69873;-34
2023/09/04 01:03:12;;;;;;;4.50;3.50;;;;;;;29.77;69.30;100476.19;4906900;28;66263;-37
2023/09/04 01:05:43;;;;;;;4.47;4.07;;;;;;;29.84;69.77;100492.38;4923337;28;69229;-37
2023/09/04 01:08:13;;;;;;;4.07;3.70;;;;;;;29.62;69.52;100459.47;4903838;28;65502;-34
2023/09/04 01:11:21;;;;;;;4.43;3.63;;;;;;;29.86;69.89;100500.25;4924541;28;70179;-35
2023/09/04 01:13:54;;;;;;;3.63;3.13;;;;;;;29.84;69.63;100503.19;4908349;28;65628;-36
2023/09/04 01:16:25;;;;;;;3.45;2.97;;;;;;;29.93;69.98;100507.25;4904724;28;69965;-35
2023/09/04 01:18:56;;;;;;;3.77;3.50;;;;;;;29.82;69.74;100495.28;4909413;28;65257;-35
2023/09/04 01:21:26;;;;;;;4.10;3.75;;;;;;;29.97;69.98;100502.22;4899572;28;70024;-34
2023/09/04 01:23:57;;;;;;;6.10;3.72;;;;;;;29.98;70.08;100514.72;4922998;28;66480;-36
2023/09/04 01:26:32;;;;;;;4.03;3.73;;;;;;;29.98;70.58;100515.53;4925524;28;70335;-35
2023/09/04 01:29:23;;;;;;;5.88;3.60;;;;;;;29.88;74.80;100526.03;4916107;28;66515;-35
2023/09/04 01:32:16;;;;;;;4.63;3.90;;;;;;;29.61;74.00;100487.53;4912543;28;70998;-35
2023/09/04 01:34:49;;;;;;;8.50;3.33;;;;;;;29.74;72.78;100484.75;4918547;28;65364;-35
2023/09/04 01:37:21;;;;;;;4.65;2.65;;;;;;;30.03;72.69;100517.53;4897937;28;68945;-35
2023/09/04 01:39:52;;;;;;;3.50;2.42;;;;;;;30.02;73.17;100524.00;4928075;28;65694;-35
2023/09/04 01:42:22;;;;;;;3.10;2.80;;;;;;;30.05;73.21;100543.31;4914578;28;70181;-36
2023/09/04 01:44:52;;;;;;;3.15;2.47;;;;;;;30.07;73.82;100540.41;4921949;28;66485;-35
2023/09/04 01:47:23;;;;;;;3.47;2.33;;;;;;;30.13;72.89;100539.50;4920289;28;70065;-36
2023/09/04 01:49:52;;;;;;;6.40;2.90;;;;;;;30.13;72.83;100534.09;4905542;28;65582;-36
2023/09/04 01:52:23;;;;;;;2.35;2.15;;;;;;;30.18;72.28;100542.38;4913619;28;69661;-36
2023/09/04 01:54:53;;;;;;;4.00;3.00;;;;;;;30.18;72.10;100547.78;4903352;28;65642;-36
2023/09/04 01:57:23;;;;;;;3.78;2.60;;;;;;;30.23;72.24;100556.09;4904709;28;70283;-37
2023/09/04 01:59:54;;;;;;;2.72;2.50;;;;;;;30.24;71.54;100552.31;4911317;28;65341;-36
2023/09/04 02:02:23;;;;;;;4.68;2.90;;;;;;;30.26;71.55;100544.81;4892354;28;70743;-36
2023/09/04 02:04:54;;;;;;;2.63;2.05;;;;;;;30.24;71.96;100536.09;4921182;28;65426;-36
2023/09/04 02:07:24;;;;;;;3.15;2.20;;;;;;;30.34;71.69;100550.97;4895430;28;70514;-35
2023/09/04 02:09:53;;;;;;;2.70;2.50;;;;;;;30.36;71.13;100557.00;4920409;28;65856;-36
2023/09/04 02:12:24;;;;;;;2.50;2.30;;;;;;;30.37;71.21;100559.50;4916256;28;70538;-36
2023/09/04 02:14:53;;;;;;;3.38;2.35;;;;;;;30.40;71.37;100550.09;4903850;28;65515;-35
2023/09/04 02:17:24;;;;;;;3.30;2.33;;;;;;;30.42;70.95;100556.09;4930976;28;70254;-36
2023/09/04 02:19:54;;;;;;;2.92;2.60;;;;;;;30.45;71.27;100563.75;4925308;28;66305;-35
2023/09/04 02:22:24;;;;;;;3.05;2.20;;;;;;;30.43;71.16;100555.06;4929089;28;70472;-34
2023/09/04 02:24:54;;;;;;;3.90;2.08;;;;;;;30.45;71.43;100561.06;4920848;28;66239;-36
2023/09/04 02:27:24;;;;;;;2.60;2.28;;;;;;;30.49;71.04;100564.97;4923900;28;70300;-34
2023/09/04 02:29:54;;;;;;;3.03;2.17;;;;;;;30.51;71.39;100573.72;4921287;28;67060;-35
2023/09/04 02:32:25;;;;;;;3.60;2.47;;;;;;;30.51;71.58;100565.59;4929054;28;70692;-35
2023/09/04 02:34:55;;;;;;;1.98;1.77;;;;;;;30.49;71.22;100573.09;4924422;28;65624;-35
2023/09/04 02:37:26;;;;;;;2.83;2.05;;;;;;;30.55;71.38;100574.06;4907266;28;69380;-37
2023/09/04 02:39:56;;;;;;;2.30;1.90;;;;;;;30.56;71.21;100573.84;4911116;28;66288;-37
2023/09/04 02:42:30;;;;;;;3.78;2.17;;;;;;;30.48;71.50;100552.50;4891988;28;69767;-35
2023/09/04 02:45:00;;;;;;;3.28;1.95;;;;;;;30.60;71.12;100561.50;4920678;28;65479;-37
2023/09/04 02:47:30;;;;;;;5.30;1.83;;;;;;;30.61;71.29;100557.75;4906797;28;70391;-34
2023/09/04 02:50:00;;;;;;;3.10;2.28;;;;;;;30.64;71.35;100561.88;4929099;28;65826;-36
2023/09/04 02:52:31;;;;;;;2.78;1.98;;;;;;;30.65;70.98;100564.38;4934663;28;70609;-35
2023/09/04 02:55:02;;;;;;;3.80;2.30;;;;;;;30.53;71.15;100528.28;4908005;28;66604;-35
2023/09/04 02:57:32;;;;;;;2.42;2.05;;;;;;;30.64;71.65;100551.88;4913440;28;69751;-38
2023/09/04 03:00:07;;;;;;;2.90;2.10;;;;;;;30.69;71.38;100560.16;4931167;28;65920;-35
2023/09/04 03:02:37;;;;;;;2.13;1.85;;;;;;;30.41;71.22;100501.16;4924255;28;69588;-36
2023/09/04 03:05:08;;;;;;;4.35;2.50;;;;;;;30.71;71.29;100552.63;4924342;28;66057;-35
2023/09/04 03:07:38;;;;;;;3.45;2.80;;;;;;;30.58;74.37;100560.91;4933761;28;69339;-35
2023/09/04 03:10:08;;;;;;;2.83;1.92;;;;;;;30.47;75.22;100562.47;4904843;28;66651;-35
2023/09/04 03:12:38;;;;;;;3.17;2.40;;;;;;;30.35;76.33;100547.25;4895178;28;70259;-36
2023/09/04 03:15:09;;;;;;;3.13;2.08;;;;;;;30.32;76.29;100556.63;4923518;28;66943;-34
2023/09/04 03:17:39;;;;;;;2.63;1.70;;;;;;;30.30;77.12;100555.19;4891548;28;70192;-36
2023/09/04 03:20:11;;;;;;;2.88;2.15;;;;;;;30.33;76.89;100549.31;4891779;28;66303;-36
2023/09/04 03:22:42;;;;;;;4.18;1.90;;;;;;;30.29;77.24;100548.97;4891092;28;70620;-35
2023/09/04 03:25:13;;;;;;;3.60;2.03;;;;;;;30.30;77.76;100544.38;4924064;28;66339;-36
2023/09/04 03:27:43;;;;;;;2.53;1.60;;;;;;;30.27;78.16;100551.88;4907652;28;69936;-35
2023/09/04 03:30:15;;;;;;;2.85;1.85;;;;;;;30.27;77.94;100554.59;4929167;28;65500;-36
2023/09/04 03:32:45;;;;;;;7.65;2.08;;;;;;;30.25;77.38;100547.75;4923751;28;70388;-36
2023/09/04 03:35:17;;;;;;;3.72;2.05;;;;;;;30.30;78.04;100557.91;4927664;28;65539;-35
2023/09/04 03:37:47;;;;;;;2.67;1.88;;;;;;;30.25;78.64;100551.25;4928972;28;69223;-35
2023/09/04 03:40:25;;;;;;;2.67;1.80;;;;;;;29.99;78.29;100500.13;4917598;28;65699;-37
2023/09/04 03:42:55;;;;;;;4.22;2.08;;;;;;;30.31;78.14;100543.31;4921959;28;68771;-35
2023/09/04 03:45:33;;;;;;;2.90;1.75;;;;;;;30.30;78.38;100536.25;4906178;28;66524;-37
2023/09/04 03:48:03;;;;;;;2.60;1.67;;;;;;;30.33;78.64;100535.81;4941051;28;70306;-38
2023/09/04 03:50:35;;;;;;;2.35;1.73;;;;;;;30.05;78.59;100483.00;4929613;28;66554;-37
2023/09/04 03:53:05;;;;;;;;;;;;;;;30.13;78.95;100528.69;4906216;28;70147;-35
2023/09/04 03:55:35;;;;;;;2.25;1.60;;;;;;;30.35;77.92;100537.22;4922272;28;65991;-36
2023/09/04 03:58:06;;;;;;;1.80;1.45;;;;;;;30.36;77.85;100544.28;4903480;28;70184;-36
2023/09/04 04:00:36;;;;;;;1.90;1.60;;;;;;;30.33;78.31;100533.09;4894550;28;65451;-36
2023/09/04 04:03:06;;;;;;;3.08;1.75;;;;;;;30.38;77.87;100530.53;4920197;28;70388;-37
2023/09/04 04:05:36;;;;;;;4.78;1.85;;;;;;;30.30;78.51;100518.13;4916339;28;66098;-37
2023/09/04 04:08:06;;;;;;;3.72;2.10;;;;;;;30.40;78.00;100528.44;4911584;28;69526;-35
2023/09/04 04:10:36;;;;;;;1.95;1.70;;;;;;;30.46;77.94;100549.19;4914388;28;65637;-37
2023/09/04 04:13:06;;;;;;;2.33;1.60;;;;;;;30.50;77.30;100536.84;4917392;28;69451;-36
2023/09/04 04:15:38;;;;;;;2.50;1.40;;;;;;;30.50;77.61;100534.16;4904796;28;66586;-38
2023/09/04 04:18:10;;;;;;;2.15;1.42;;;;;;;30.47;77.67;100518.34;4902305;28;70973;-36
2023/09/04 04:20:40;;;;;;;;;;;;;;;30.31;78.47;100518.97;4919396;28;65990;-35
2023/09/04 04:23:09;;;;;;;2.25;1.42;;;;;;;30.48;78.05;100510.03;4917424;28;69993;-35
2023/09/04 04:25:41;;;;;;;2.35;1.70;;;;;;;30.53;77.83;100506.63;4915077;28;66532;-35
2023/09/04 04:28:11;;;;;;;2.72;2.03;;;;;;;30.51;77.58;100492.50;4925179;28;70013;-35
2023/09/04 04:30:41;;;;;;;2.92;1.90;;;;;;;30.67;75.67;100500.00;4900109;28;66226;-35
2023/09/04 04:33:12;;;;;;;2.10;1.63;;;;;;;30.76;75.22;100483.41;4886234;28;69221;-36
2023/09/04 04:35:43;;;;;;;4.97;1.60;;;;;;;30.80;74.85;100479.25;4928228;28;66348;-35
2023/09/04 04:38:13;;;;;;;2.30;2.00;;;;;;;30.88;74.65;100477.03;4918566;28;70461;-35
2023/09/04 04:40:43;;;;;;;2.67;2.08;;;;;;;30.94;74.46;100476.13;4917128;28;66871;-35
2023/09/04 04:43:14;;;;;;;4.28;1.90;;;;;;;30.98;74.28;100476.50;4898656;28;70508;-36
2023/09/04 04:45:46;;;;;;;4.53;2.70;;;;;;;31.02;74.28;100466.84;4905914;28;66066;-36
2023/09/04 04:48:19;;;;;;;2.40;2.20;;;;;;;31.05;73.83;100471.78;4933161;28;70511;-37
2023/09/04 04:50:49;;;;;;;6.97;3.58;;;;;;;30.93;75.30;100457.41;4877803;28;66944;-34
2023/09/04 04:53:25;;;;;;;2.97;2.78;;;;;;;30.85;75.74;100455.00;4906648;28;70124;-35
2023/09/04 04:55:55;;;;;;;2.97;2.72;;;;;;;30.80;75.39;100452.16;4897777;28;66310;-37
2023/09/04 04:58:25;;;;;;;4.07;3.67;;;;;;;30.88;76.03;100462.69;4922419;28;69215;-35
2023/09/04 05:00:55;;;;;;;3.25;2.95;;;;;;;30.91;75.60;100456.78;4902060;28;65380;-35
2023/09/04 05:03:26;;;;;;;5.18;2.97;;;;;;;30.78;76.48;100440.69;4922523;28;69558;-35
2023/09/04 05:05:56;;;;;;;3.40;3.10;;;;;;;30.88;75.80;100449.97;4910175;28;66923;-35
2023/09/04 05:08:26;;;;;;;3.90;3.15;;;;;;;30.95;74.39;100433.59;4902477;28;69699;-35
2023/09/04 05:11:05;;;;;;;2.72;2.53;;;;;;;30.82;73.93;100385.06;4874068;28;65240;-35
2023/09/04 05:13:38;;;;;;;3.07;2.30;;;;;;;31.13;73.80;100424.59;4907882;28;70046;-35
2023/09/04 05:16:08;;;;;;;2.88;2.55;;;;;;;31.15;73.55;100411.63;4904747;28;66491;-36
2023/09/04 05:18:40;;;;;;;3.22;2.92;;;;;;;31.23;73.46;100426.72;4889742;28;69937;-35
2023/09/04 05:21:10;;;;;;;3.00;2.72;;;;;;;31.26;72.96;100418.09;4903831;28;65480;-36
2023/09/04 05:23:40;;;;;;;2.60;2.40;;;;;;;31.32;72.79;100414.47;4886067;28;69820;-36
2023/09/04 05:26:10;;;;;;;2.47;2.28;;;;;;;31.08;72.70;100376.50;4919821;28;66394;-35
2023/09/04 05:28:41;;;;;;;3.17;2.88;;;;;;;31.38;72.39;100400.84;4895660;28;70056;-36
2023/09/04 05:31:11;;;;;;;3.22;2.58;;;;;;;31.43;72.25;100397.44;4918252;28;66192;-36
2023/09/04 05:33:41;;;;;;;3.10;2.90;;;;;;;31.45;72.18;100384.44;4921448;28;69731;-35
2023/09/04 05:36:11;;;;;;;2.95;2.45;;;;;;;31.48;72.07;100392.13;4929590;28;65386;-35
2023/09/04 05:38:42;;;;;;;2.70;2.50;;;;;;;31.44;71.61;100374.69;4905176;28;69865;-35
2023/09/04 05:41:12;;;;;;;5.03;3.08;;;;;;;31.53;71.37;100383.28;4921191;28;65165;-36
2023/09/04 05:43:42;;;;;;;2.55;2.28;;;;;;;31.54;71.30;100366.78;4916388;28;70404;-36
2023/09/04 05:46:12;;;;;;;2.65;2.45;;;;;;;31.52;71.18;100347.22;4913621;28;66735;-35
2023/09/04 05:48:42;;;;;;;2.78;2.55;;;;;;;31.59;71.15;100352.50;4904144;28;70683;-35
2023/09/04 05:51:12;;;;;;;3.03;2.50;;;;;;;31.57;70.89;100341.91;4912740;28;66358;-34
2023/09/04 05:53:42;;;;;;;3.08;2.67;;;;;;;31.64;70.88;100346.38;4907006;28;70200;-36
2023/09/04 05:56:13;;;;;;;3.50;2.58;;;;;;;31.64;70.75;100336.34;4922003;28;65714;-36
2023/09/04 05:58:52;;;;;;;2.40;2.20;;;;;;;31.62;70.42;100322.19;4912077;28;70308;-36
2023/09/04 06:01:23;;;;;;;3.45;1.85;;;;;;;31.67;70.90;100332.34;4920506;28;66016;-36
2023/09/04 06:03:54;;;;;;;1.88;1.77;;;;;;;31.66;71.10;100319.84;4921215;28;70170;-35
2023/09/04 06:06:25;;;;;;;2.08;1.85;;;;;;;31.71;70.60;100312.66;4905382;28;65735;-36
2023/09/04 06:08:55;;;;;;;1.93;1.73;;;;;;;31.67;70.51;100294.38;4906274;28;69679;-35
2023/09/04 06:11:25;;;;;;;3.33;1.80;;;;;;;31.75;70.47;100321.94;4917941;28;65575;-37
2023/09/04 06:13:55;;;;;;;2.70;1.67;;;;;;;31.69;70.19;100289.53;4919137;28;70193;-36
2023/09/04 06:16:25;;;;;;;1.77;1.30;;;;;;;31.78;70.15;100294.34;4909654;28;66132;-36
2023/09/04 06:18:55;;;;;;;1.95;1.70;;;;;;;31.79;69.84;100292.47;4914860;28;70730;-37
2023/09/04 06:21:25;;;;;;;2.03;1.40;;;;;;;31.81;69.82;100290.31;4917376;28;66254;-35
2023/09/04 06:23:55;;;;;;;1.60;1.50;;;;;;;31.85;69.66;100286.06;4925672;28;70524;-36
2023/09/04 06:26:25;;;;;;;2.35;1.48;;;;;;;31.85;69.45;100280.66;4922477;28;66389;-35
2023/09/04 06:28:55;;;;;;;2.47;1.73;;;;;;;31.90;69.32;100278.03;4924753;28;70249;-36
2023/09/04 06:31:25;;;;;;;2.50;1.63;;;;;;;31.86;69.23;100265.19;4921873;28;66721;-37
2023/09/04 06:33:55;;;;;;;1.90;1.42;;;;;;;31.94;69.10;100262.94;4919027;28;70471;-35
2023/09/04 06:36:26;;;;;;;3.45;1.90;;;;;;;31.89;69.01;100249.25;4908878;28;65676;-37
2023/09/04 06:38:56;;;;;;;4.70;2.83;;;;;;;31.94;70.14;100265.66;4914810;28;70636;-35
2023/09/04 06:41:26;;;;;;;3.13;2.22;;;;;;;31.96;70.24;100249.97;4911239;28;66384;-34
2023/09/04 06:43:56;;;;;;;3.47;2.75;;;;;;;31.97;70.90;100257.03;4914376;28;70475;-35
2023/09/04 06:46:26;;;;;;;3.97;3.10;;;;;;;31.98;70.81;100250.56;4919564;28;66941;-36
2023/09/04 06:48:56;;;;;;;2.75;2.55;;;;;;;32.01;70.90;100252.78;4901042;28;69991;-36
2023/09/04 06:51:28;;;;;;;5.88;2.60;;;;;;;31.87;71.34;100250.56;4920164;28;66352;-35
2023/09/04 06:53:59;;;;;;;2.42;1.85;;;;;;;31.78;71.48;100253.66;4914275;28;70289;-33
2023/09/04 06:56:28;;;;;;;2.05;1.75;;;;;;;31.69;71.13;100244.25;4908947;28;66585;-35
2023/09/04 06:58:59;;;;;;;7.80;2.47;;;;;;;31.63;71.58;100233.56;4900682;28;69675;-35
2023/09/04 07:01:29;;;;;;;3.33;2.13;;;;;;;31.58;71.56;100229.69;4912965;28;66219;-35
2023/09/04 07:03:59;;;;;;;2.83;1.75;;;;;;;31.64;71.91;100222.47;4911146;28;70524;-35
2023/09/04 07:06:29;;;;;;;4.97;2.10;;;;;;;31.63;71.99;100222.72;4916484;28;66503;-36
2023/09/04 07:08:59;;;;;;;5.00;2.17;;;;;;;31.63;72.44;100228.16;4907996;28;69283;-35
2023/09/04 07:11:29;;;;;;;3.50;1.67;;;;;;;31.61;72.28;100221.06;4912563;28;66564;-37
2023/09/04 07:13:59;;;;;;;2.97;1.38;;;;;;;31.40;72.22;100175.66;4886985;28;69284;-36
2023/09/04 07:16:37;;;;;;;4.05;1.80;;;;;;;31.64;72.19;100208.09;4900194;28;66253;-36
2023/09/04 07:19:18;;;;;;;2.33;1.40;;;;;;;31.66;72.19;100201.38;4899377;28;70533;-35
2023/09/04 07:21:48;;;;;;;4.40;1.48;;;;;;;31.69;72.39;100209.03;4918591;28;65428;-37
2023/09/04 07:24:18;;;;;;;3.65;1.58;;;;;;;31.68;72.49;100214.66;4904319;28;70037;-35
2023/09/04 07:26:49;;;;;;;3.30;1.75;;;;;;;31.61;72.56;100209.41;4921130;28;65744;-35
2023/09/04 07:29:20;;;;;;;2.80;1.50;;;;;;;31.63;72.70;100217.31;4914893;28;70300;-35
2023/09/04 07:31:50;;;;;;;2.67;1.35;;;;;;;31.66;72.72;100223.06;4911068;28;66462;-36
2023/09/04 07:34:20;;;;;;;2.00;1.20;;;;;;;31.68;72.61;100214.66;4920589;28;70771;-36
2023/09/04 07:36:52;;;;;;;7.43;1.65;;;;;;;31.67;72.79;100229.31;4919351;28;65493;-34
2023/09/04 07:39:22;;;;;;;3.17;2.10;;;;;;;31.66;72.24;100222.25;4915256;28;69180;-35
2023/09/04 07:41:54;;;;;;;5.80;2.10;;;;;;;31.65;72.06;100220.56;4914702;28;66700;-34
2023/09/04 07:44:24;;;;;;;2.88;1.55;;;;;;;31.64;71.72;100205.38;4910304;28;70090;-37
2023/09/04 07:46:54;;;;;;;3.08;1.23;;;;;;;31.61;71.42;100202.09;4911086;28;66835;-35
2023/09/04 07:49:24;;;;;;;1.88;0.90;;;;;;;31.63;71.56;100201.84;4911229;28;70575;-34
2023/09/04 07:51:54;;;;;;;2.53;0.95;;;;;;;31.61;71.67;100193.94;4912421;28;66171;-35
2023/09/04 07:54:24;;;;;;;3.40;1.08;;;;;;;31.63;71.80;100211.88;4914308;28;70339;-35
2023/09/04 07:56:55;;;;;;;1.85;1.08;;;;;;;31.67;71.63;100202.19;4919782;28;65684;-35
2023/09/04 07:59:25;;;;;;;1.88;1.10;;;;;;;31.32;71.40;100154.34;4919584;28;69489;-37
2023/09/04 08:01:55;;;;;;;3.05;1.33;;;;;;;31.65;72.00;100209.72;4922392;28;65874;-35
2023/09/04 08:04:25;;;;;;;1.63;1.17;;;;;;;31.65;72.13;100207.88;4919468;28;69263;-36
2023/09/04 08:06:56;;;;;;;2.67;1.73;;;;;;;31.63;71.86;100204.56;4917715;28;66091;-35
2023/09/04 08:09:26;;;;;;;1.90;1.47;;;;;;;31.54;72.52;100187.06;4920065;28;69697;-34
2023/09/04 08:11:56;;;;;;;9.60;2.75;;;;;;;31.58;72.36;100186.31;4918136;28;66204;-35
2023/09/04 08:14:26;;;;;;;7.82;5.80;;;;;;;31.59;72.13;100185.25;4909316;28;69282;-34
2023/09/04 08:16:57;;;;;;;5.53;5.03;;;;;;;31.58;72.50;100178.16;4914148;28;65570;-35
2023/09/04 08:19:28;;;;;;;8.10;7.45;;;;;;;31.57;72.42;100190.09;4914859;28;69872;-35
2023/09/04 08:21:58;;;;;;;9.45;8.68;;;;;;;31.51;71.78;100176.66;4916249;28;65334;-35
2023/09/04 08:24:28;;;;;;;8.10;7.43;;;;;;;31.58;72.48;100183.59;4914068;28;70005;-36
2023/09/04 08:26:59;;;;;;;9.35;8.13;;;;;;;31.52;72.42;100184.56;4915246;28;66281;-35
2023/09/04 08:29:29;;;;;;;10.30;9.48;;;;;;;31.57;72.56;100187.38;4896576;28;69398;-34
2023/09/04 08:31:59;;;;;;;9.63;8.93;;;;;;;31.58;72.40;100216.13;4908314;28;66273;-35
2023/09/04 08:34:29;;;;;;;10.15;9.15;;;;;;;31.56;72.64;100214.72;4902420;28;70517;-35
2023/09/04 08:37:00;;;;;;;10.67;9.27;;;;;;;31.54;72.63;100204.13;4915197;28;65922;-35
2023/09/04 08:39:30;;;;;;;10.50;9.60;;;;;;;31.57;72.67;100208.25;4910967;28;70108;-35
2023/09/04 08:42:02;;;;;;;11.50;10.30;;;;;;;31.57;72.61;100195.50;4897402;28;66006;-34
2023/09/04 08:44:35;;;;;;;10.70;9.82;;;;;;;31.53;72.52;100188.91;4915016;28;70200;-36
2023/09/04 08:47:06;;;;;;;10.27;9.48;;;;;;;31.61;72.53;100204.78;4913473;28;66050;-36
2023/09/04 08:49:38;;;;;;;10.07;9.20;;;;;;;31.53;72.58;100185.38;4913660;28;69346;-37
2023/09/04 08:52:09;;;;;;;9.02;8.23;;;;;;;31.63;72.48;100201.03;4909839;28;66801;-36
2023/09/04 08:54:40;;;;;;;8.33;7.57;;;;;;;31.53;72.54;100186.19;4907401;28;70345;-36
2023/09/04 08:57:11;;;;;;;6.60;6.10;;;;;;;31.59;71.76;100206.94;4917840;28;66237;-35
2023/09/04 08:59:41;;;;;;;7.03;6.03;;;;;;;31.53;72.05;100190.81;4908324;28;70872;-36
2023/09/04 09:02:15;;;;;;;10.38;5.70;;;;;;;31.27;71.96;100165.06;4911993;28;65965;-36
2023/09/04 09:04:47;;;;;;;7.78;5.68;;;;;;;31.56;71.79;100207.41;4904111;28;70639;-36
2023/09/04 09:07:18;;;;;;;6.82;5.03;;;;;;;31.54;72.38;100198.72;4910976;28;65577;-37
2023/09/04 09:09:51;;;;;;;5.05;4.60;;;;;;;31.32;72.49;100167.88;4890660;28;70108;-38
2023/09/04 09:12:21;;;;;;;4.85;4.45;;;;;;;31.66;72.38;100219.53;4906641;28;66196;-36
2023/09/04 09:14:52;;;;;;;4.90;4.50;;;;;;;31.67;72.69;100223.88;4910178;28;70244;-36
2023/09/04 09:17:22;;;;;;;3.63;3.33;;;;;;;31.67;72.48;100219.28;4899392;28;66024;-36
2023/09/04 09:19:53;;;;;;;5.20;3.45;;;;;;;31.67;72.81;100223.88;4909142;28;70350;-36
2023/09/04 09:22:23;;;;;;;4.28;3.50;;;;;;;31.68;72.67;100225.50;4890331;28;65258;-36
2023/09/04 09:24:56;;;;;;;2.90;2.70;;;;;;;31.70;72.75;100236.94;4906392;28;69342;-35
2023/09/04 09:27:29;;;;;;;3.45;3.17;;;;;;;31.32;73.13;100178.72;4907343;28;65527;-35
2023/09/04 09:30:00;;;;;;;4.28;3.30;;;;;;;31.69;72.71;100240.75;4911494;28;70187;-36
2023/09/04 09:32:33;;;;;;;3.05;2.85;;;;;;;31.34;73.13;100193.69;4907977;28;65425;-35
2023/09/04 09:35:03;;;;;;;2.58;2.38;;;;;;;31.70;73.22;100256.75;4889234;28;69562;-35
2023/09/04 09:37:34;;;;;;;3.20;3.00;;;;;;;31.63;73.14;100250.66;4911326;28;67172;-36
2023/09/04 09:40:08;;;;;;;3.05;2.85;;;;;;;31.34;73.67;100193.69;4897237;28;69829;-35
2023/09/04 09:42:40;;;;;;;3.55;3.10;;;;;;;31.72;73.50;100260.06;4905753;28;66449;-37
2023/09/04 09:45:12;;;;;;;3.95;3.47;;;;;;;31.67;73.34;100251.00;4906281;28;70482;-37
2023/09/04 09:47:42;;;;;;;3.35;3.15;;;;;;;31.72;73.38;100270.09;4911380;28;66441;-37
2023/09/04 09:50:15;;;;;;;3.17;2.97;;;;;;;31.74;73.35;100268.78;4910775;28;69398;-35
2023/09/04 09:53:04;;;;;;;7.97;4.03;;;;;;;31.68;73.86;100269.75;4917318;28;66632;-35
2023/09/04 09:55:35;;;;;;;4.10;3.70;;;;;;;31.75;73.78;100275.03;4912493;28;69288;-34
2023/09/04 09:58:07;;;;;;;4.10;3.75;;;;;;;31.41;74.04;100226.09;4914263;28;66148;-38
2023/09/04 10:00:37;;;;;;;;;;;;;;;31.57;75.08;100279.56;4914497;28;70002;-38
2023/09/04 10:03:08;;;;;;;5.15;4.10;;;;;;;31.73;74.70;100280.69;4913167;28;65931;-35
2023/09/04 10:05:41;;;;;;;4.88;4.47;;;;;;;31.73;74.73;100271.72;4917707;28;70992;-37
2023/09/04 10:08:13;;;;;;;4.30;3.95;;;;;;;31.45;74.59;100227.25;4917020;28;66835;-36
2023/09/04 10:10:47;;;;;;;6.30;4.57;;;;;;;31.77;74.45;100289.16;4913751;28;70031;-39
2023/09/04 10:13:22;;;;;;;5.35;4.95;;;;;;;31.55;74.63;100248.31;4906875;28;66322;-37
2023/09/04 10:15:57;;;;;;;5.40;5.00;;;;;;;31.79;74.76;100287.06;4910939;28;70448;-35
2023/09/04 10:18:30;;;;;;;6.20;5.57;;;;;;;31.81;75.07;100295.75;4918746;28;65775;-36
2023/09/04 10:21:03;;;;;;;9.40;6.00;;;;;;;31.21;75.04;100201.25;4909394;28;68968;-36
2023/09/04 10:23:40;;;;;;;5.72;5.22;;;;;;;31.79;75.15;100303.31;4924992;28;66525;-37
2023/09/04 10:26:21;;;;;;;6.78;6.15;;;;;;;31.56;75.27;100267.03;4904303;28;69685;-36
2023/09/04 10:29:02;;;;;;;6.40;5.87;;;;;;;31.46;75.46;100250.59;4908085;28;66894;-37
2023/09/04 10:31:35;;;;;;;9.73;6.20;;;;;;;31.81;75.25;100312.00;4904739;28;71109;-35
2023/09/04 10:34:06;;;;;;;6.40;5.90;;;;;;;31.81;74.85;100314.72;4886974;28;66120;-35
2023/09/04 10:36:38;;;;;;;6.25;5.75;;;;;;;31.81;75.07;100312.84;4913334;28;70189;-35
2023/09/04 10:39:09;;;;;;;6.53;5.90;;;;;;;31.80;74.71;100315.81;4912398;28;65342;-35
2023/09/04 10:41:39;;;;;;;6.43;5.95;;;;;;;31.80;74.62;100323.94;4915394;28;70420;-35
2023/09/04 10:44:11;;;;;;;7.03;6.63;;;;;;;31.89;74.01;100319.78;4923810;28;65769;-35
2023/09/04 10:46:55;;;;;;;7.93;6.00;;;;;;;31.96;73.61;100327.81;4917832;28;71321;-36
2023/09/04 10:49:33;;;;;;;6.68;6.10;;;;;;;31.71;73.22;100279.28;4892105;28;66468;-35
2023/09/04 10:52:05;;;;;;;6.18;5.70;;;;;;;32.13;73.05;100341.44;4918347;28;69335;-36
2023/09/04 10:54:35;;;;;;;7.00;6.38;;;;;;;32.16;72.81;100340.97;4921315;28;65352;-35
2023/09/04 10:57:15;;;;;;;7.05;6.38;;;;;;;32.21;72.68;100338.34;4905350;28;70607;-36
2023/09/04 10:59:55;;;;;;;7.35;6.65;;;;;;;32.18;72.52;100338.81;4914065;28;65750;-35
2023/09/04 11:02:33;;;;;;;7.28;6.68;;;;;;;32.21;72.75;100338.34;4916489;28;70342;-35
2023/09/04 11:05:07;;;;;;;8.38;7.32;;;;;;;32.23;72.00;100338.91;4923883;28;65896;-36
2023/09/04 11:07:37;;;;;;;9.57;7.03;;;;;;;32.25;72.53;100344.94;4928450;28;70364;-35
2023/09/04 11:10:07;;;;;;;8.55;7.13;;;;;;;32.25;72.53;100347.63;4919789;28;65290;-36
2023/09/04 11:12:38;;;;;;;9.52;8.50;;;;;;;32.06;74.03;100347.00;4926149;28;70421;-34
2023/09/04 11:15:28;;;;;;;9.57;8.30;;;;;;;31.89;74.83;100351.50;4914815;28;67097;-35
2023/09/04 11:17:59;;;;;;;12.75;8.23;;;;;;;31.83;75.22;100337.84;4911642;28;69313;-35
2023/09/04 11:20:45;;;;;;;12.05;8.10;;;;;;;31.97;74.40;100348.44;4901709;28;66057;-34
2023/09/04 11:23:17;;;;;;;9.30;8.02;;;;;;;32.10;73.59;100364.47;4922846;28;70278;-37
2023/09/04 11:25:48;;;;;;;9.13;8.05;;;;;;;32.15;73.13;100361.00;4908796;28;65952;-35
2023/09/04 11:28:22;;;;;;;13.65;8.30;;;;;;;32.08;73.04;100344.06;4932150;28;69301;-34
2023/09/04 11:30:53;;;;;;;8.55;7.85;;;;;;;32.19;72.73;100378.47;4920321;28;66511;-35
2023/09/04 11:33:29;;;;;;;13.35;9.40;;;;;;;32.18;72.93;100382.22;4905199;28;70887;-35
2023/09/04 11:36:02;;;;;;;11.60;8.93;;;;;;;32.20;72.61;100385.53;4921412;28;65740;-35
2023/09/04 11:38:33;;;;;;;9.55;8.65;;;;;;;32.19;72.38;100401.00;4920787;28;69274;-38
2023/09/04 11:41:20;;;;;;;12.57;9.23;;;;;;;32.11;72.51;100397.84;4930602;28;66023;-35
2023/09/04 11:43:50;;;;;;;14.02;8.27;;;;;;;32.19;72.54;100405.59;4922599;28;70932;-35